Time;durP1;ratioP1;P1;durP2;ratioP2;P2;SDS_P1;SDS_P2;PMS_P1;PMS_P2;Temp;Humidity;BMP_temperature;BMP_pressure;BME280_temperature;BME280_humidity;BME280_pressure;Samples;Min_cycle;Max_cycle;Signal;HPM_P1;HPM_P2
2023/02/13 00:00:59;;;;;;;0.00;0.00;;;;;;;7.12;100.00;102612.06;5070033;28;20261;-71
2023/02/13 00:03:25;;;;;;;0.00;0.00;;;;;;;7.13;100.00;102610.19;5070389;28;20626;-72
2023/02/13 00:05:50;;;;;;;0.00;0.00;;;;;;;7.06;100.00;102621.16;5070085;28;20202;-72
2023/02/13 00:08:15;;;;;;;0.00;0.00;;;;;;;6.89;100.00;102616.63;5070203;28;20175;-71
2023/02/13 00:10:40;;;;;;;0.00;0.00;;;;;;;6.97;100.00;102619.84;5069892;28;20545;-73
2023/02/13 00:13:06;;;;;;;0.00;0.00;;;;;;;7.13;100.00;102623.75;5070111;28;20219;-72
2023/02/13 00:15:31;;;;;;;0.00;0.00;;;;;;;7.16;100.00;102624.13;5070550;28;20545;-71
2023/02/13 00:17:56;;;;;;;1.13;0.73;;;;;;;7.27;100.00;102621.66;5070011;28;20231;-71
2023/02/13 00:20:22;;;;;;;0.10;0.10;;;;;;;7.25;100.00;102626.50;5069862;28;20178;-73
2023/02/13 00:22:47;;;;;;;0.00;0.00;;;;;;;7.14;100.00;102623.53;5070074;28;20273;-72
2023/02/13 00:25:13;;;;;;;0.00;0.00;;;;;;;7.16;100.00;102628.72;5069956;28;20194;-72
2023/02/13 00:27:38;;;;;;;0.00;0.00;;;;;;;7.19;100.00;102622.00;5069883;28;20277;-74
2023/02/13 00:30:04;;;;;;;0.00;0.00;;;;;;;7.22;100.00;102619.63;5069858;28;20247;-72
2023/02/13 00:35:15;;;;;;;0.00;0.00;;;;;;;7.24;100.00;102622.97;4995730;23;20240;-81
2023/02/13 00:37:40;;;;;;;0.00;0.00;;;;;;;7.24;100.00;102620.25;4973487;28;20553;-83
2023/02/13 00:40:06;;;;;;;0.00;0.00;;;;;;;7.34;100.00;102614.19;4960496;28;20202;-81
2023/02/13 00:42:32;;;;;;;0.00;0.00;;;;;;;7.37;100.00;102616.44;4963118;28;20217;-82
2023/02/13 00:44:57;;;;;;;0.00;0.00;;;;;;;7.39;100.00;102617.06;4965621;28;20232;-80
2023/02/13 00:47:22;;;;;;;0.00;0.00;;;;;;;7.42;100.00;102619.28;4966781;28;20181;-83
2023/02/13 00:49:48;;;;;;;0.00;0.00;;;;;;;7.47;100.00;102619.41;4965566;28;20189;-80
2023/02/13 00:52:13;;;;;;;0.00;0.00;;;;;;;7.48;100.00;102615.63;4964799;28;20316;-82
2023/02/13 00:54:38;;;;;;;0.00;0.00;;;;;;;7.46;100.00;102615.84;4963145;28;20240;-82
2023/02/13 00:57:03;;;;;;;0.83;0.77;;;;;;;7.48;100.00;102621.06;4963687;28;20194;-80
2023/02/13 00:59:29;;;;;;;0.00;0.00;;;;;;;7.47;100.00;102617.50;4966644;28;20225;-80
2023/02/13 01:01:54;;;;;;;0.00;0.00;;;;;;;7.47;100.00;102622.94;4965382;28;20181;-80
2023/02/13 01:04:19;;;;;;;0.00;0.00;;;;;;;7.54;100.00;102619.28;4966057;28;20190;-81
2023/02/13 01:06:45;;;;;;;0.00;0.00;;;;;;;7.49;100.00;102609.09;4966569;28;20244;-82
2023/02/13 01:09:10;;;;;;;0.00;0.00;;;;;;;7.51;100.00;102611.59;4964875;28;20659;-78
2023/02/13 01:11:36;;;;;;;0.00;0.00;;;;;;;7.52;100.00;102599.63;4961657;28;20418;-83
2023/02/13 01:14:01;;;;;;;0.00;0.00;;;;;;;7.57;100.00;102614.19;4962839;28;20266;-80
2023/02/13 01:16:26;;;;;;;0.00;0.00;;;;;;;7.54;100.00;102611.97;4966371;28;20177;-81
2023/02/13 01:18:52;;;;;;;0.00;0.00;;;;;;;7.42;100.00;102602.97;4966229;28;20272;-80
2023/02/13 01:21:19;;;;;;;0.00;0.00;;;;;;;7.36;100.00;102604.72;4963770;28;20566;-80
2023/02/13 01:23:45;;;;;;;0.10;0.10;;;;;;;7.30;100.00;102604.88;4962709;28;20662;-82
2023/02/13 01:26:16;;;;;;;0.00;0.00;;;;;;;7.27;100.00;102600.72;4964047;28;20607;-79
2023/02/13 01:28:42;;;;;;;0.10;0.10;;;;;;;7.19;100.00;102606.50;4966375;28;20193;-81
2023/02/13 01:31:07;;;;;;;0.10;0.10;;;;;;;7.12;100.00;102598.47;4964921;28;20212;-80
2023/02/13 01:33:33;;;;;;;0.00;0.00;;;;;;;7.04;100.00;102592.53;4961004;28;20186;-81
2023/02/13 01:35:59;;;;;;;0.00;0.00;;;;;;;6.97;100.00;102583.69;4962592;28;20661;-81
2023/02/13 01:38:24;;;;;;;0.10;0.10;;;;;;;6.94;100.00;102581.41;4969128;28;20190;-81
2023/02/13 01:40:51;;;;;;;0.67;0.63;;;;;;;6.87;100.00;102589.69;4962544;28;20261;-80
2023/02/13 01:43:17;;;;;;;0.00;0.00;;;;;;;6.78;100.00;102583.75;4964426;28;20290;-78
2023/02/13 01:45:45;;;;;;;0.77;0.77;;;;;;;6.79;100.00;102576.44;4965795;28;20272;-81
2023/02/13 01:48:14;;;;;;;0.00;0.00;;;;;;;6.79;100.00;102579.16;4964196;28;20218;-81
2023/02/13 01:50:46;;;;;;;0.00;0.00;;;;;;;6.80;100.00;102575.41;4962385;28;20542;-77
2023/02/13 01:53:17;;;;;;;7.13;4.33;;;;;;;6.83;100.00;102581.19;4969765;28;20628;-81
2023/02/13 01:55:53;;;;;;;0.00;0.00;;;;;;;6.85;100.00;102580.94;4968010;28;20186;-82
2023/02/13 01:58:24;;;;;;;0.00;0.00;;;;;;;6.72;100.00;102578.44;4961700;28;20678;-81
2023/02/13 02:00:49;;;;;;;0.00;0.00;;;;;;;6.78;100.00;102570.19;4968824;28;20226;-81
2023/02/13 02:03:26;;;;;;;0.00;0.00;;;;;;;6.84;100.00;102571.97;4963837;28;20214;-80
2023/02/13 02:05:55;;;;;;;0.00;0.00;;;;;;;6.92;100.00;102565.34;4965501;28;20189;-80
2023/02/13 02:08:21;;;;;;;0.00;0.00;;;;;;;6.91;100.00;102565.59;4962590;28;20269;-77
2023/02/13 02:10:47;;;;;;;0.00;0.00;;;;;;;6.91;100.00;102566.41;4960648;28;20713;-80
2023/02/13 02:13:12;;;;;;;0.00;0.00;;;;;;;6.94;100.00;102568.66;4963370;28;20195;-78
2023/02/13 02:15:39;;;;;;;0.00;0.00;;;;;;;6.61;100.00;102565.66;4965631;28;20581;-81
2023/02/13 02:18:12;;;;;;;0.00;0.00;;;;;;;6.69;100.00;102566.16;4957094;28;20799;-81
2023/02/13 02:20:49;;;;;;;0.00;0.00;;;;;;;6.74;100.00;102565.44;4965395;28;20201;-81
2023/02/13 02:23:52;;;;;;;0.00;0.00;;;;;;;6.86;100.00;102563.59;4962745;28;20720;-80
2023/02/13 02:26:49;;;;;;;0.00;0.00;;;;;;;6.91;100.00;102568.31;4969728;28;20200;-81
2023/02/13 02:29:39;;;;;;;0.00;0.00;;;;;;;6.92;100.00;102561.81;4963884;28;20194;-81
2023/02/13 02:32:19;;;;;;;0.00;0.00;;;;;;;6.85;100.00;102553.78;4964280;28;20574;-80
2023/02/13 02:35:03;;;;;;;0.00;0.00;;;;;;;6.75;100.00;102556.25;4967137;28;20193;-81
2023/02/13 02:37:47;;;;;;;0.00;0.00;;;;;;;6.67;100.00;102553.88;4961519;28;20194;-81
2023/02/13 02:40:23;;;;;;;0.00;0.00;;;;;;;6.58;100.00;102553.38;4963153;28;20245;-77
2023/02/13 02:43:16;;;;;;;1.67;1.23;;;;;;;6.46;100.00;102547.91;4964653;28;20192;-80
2023/02/13 02:45:52;;;;;;;0.00;0.00;;;;;;;6.47;100.00;102549.56;4960818;28;20202;-80
2023/02/13 02:52:03;;;;;;;0.93;0.93;;;;;;;6.53;100.00;102543.22;4961114;28;20628;-77
2023/02/13 03:06:09;;;;;;;0.47;0.47;;;;;;;6.57;100.00;102532.72;4965626;28;20260;-70
2023/02/13 03:14:05;;;;;;;6.10;1.17;;;;;;;6.57;100.00;102535.44;4963582;28;20244;-70
2023/02/13 03:22:35;;;;;;;2.03;1.03;;;;;;;6.63;100.00;102542.63;4962493;28;20193;-71
2023/02/13 03:25:11;;;;;;;0.03;0.03;;;;;;;6.61;100.00;102531.19;4960424;28;20186;-70
2023/02/13 03:31:06;;;;;;;1.27;0.87;;;;;;;6.60;100.00;102548.53;4960617;28;20716;-71
2023/02/13 03:33:55;;;;;;;1.23;0.67;;;;;;;6.60;100.00;102548.53;4947649;28;20579;-72
2023/02/13 03:39:39;;;;;;;1.63;1.53;;;;;;;6.57;100.00;102541.69;4960705;28;20185;-70
2023/02/13 03:42:10;;;;;;;0.67;0.67;;;;;;;6.58;100.00;102537.09;4960863;28;20282;-70
2023/02/13 03:44:42;;;;;;;2.93;0.43;;;;;;;6.57;100.00;102544.41;4963394;28;20709;-70
2023/02/13 03:47:09;;;;;;;1.83;1.20;;;;;;;6.57;100.00;102549.84;4962605;28;20182;-71
2023/02/13 03:52:46;;;;;;;1.30;1.23;;;;;;;6.59;100.00;102548.78;4963516;28;20373;-71
2023/02/13 04:00:56;;;;;;;4.77;2.93;;;;;;;6.55;100.00;102554.69;4963743;28;20600;-74
2023/02/13 04:03:27;;;;;;;3.47;3.17;;;;;;;6.54;100.00;102555.75;4960326;28;20182;-70
2023/02/13 04:06:14;;;;;;;1.80;1.70;;;;;;;6.54;100.00;102553.03;4960191;28;20253;-70
2023/02/13 04:08:39;;;;;;;2.43;1.57;;;;;;;6.55;100.00;102554.69;4959956;28;20696;-71
2023/02/13 04:11:36;;;;;;;3.37;3.07;;;;;;;6.56;100.00;102552.78;4959278;28;20242;-70
2023/02/13 04:14:17;;;;;;;2.20;2.00;;;;;;;6.54;100.00;102550.31;4962758;28;20201;-71
2023/02/13 04:16:48;;;;;;;1.53;1.47;;;;;;;6.51;100.00;102548.06;4960066;28;20202;-70
2023/02/13 04:19:15;;;;;;;2.07;1.53;;;;;;;6.49;100.00;102544.72;4969834;28;20274;-72
2023/02/13 04:21:40;;;;;;;0.20;0.20;;;;;;;6.49;100.00;102544.72;4964194;28;20248;-71
2023/02/13 04:24:06;;;;;;;0.67;0.40;;;;;;;6.49;100.00;102549.31;4963049;28;20714;-71
2023/02/13 04:26:41;;;;;;;0.53;0.53;;;;;;;6.49;100.00;102544.72;4967239;28;20302;-71
2023/02/13 04:29:07;;;;;;;1.60;1.40;;;;;;;6.48;100.00;102537.63;4966275;28;20738;-70
2023/02/13 04:31:33;;;;;;;3.13;2.37;;;;;;;6.49;100.00;102535.75;4963714;28;20681;-71
2023/02/13 04:33:58;;;;;;;1.23;1.23;;;;;;;6.50;100.00;102549.09;4963651;28;20197;-71
2023/02/13 04:36:24;;;;;;;4.17;2.10;;;;;;;6.50;100.00;102545.56;4966829;28;20186;-70
2023/02/13 04:38:50;;;;;;;0.70;0.63;;;;;;;6.51;100.00;102539.91;4967063;28;20190;-70
2023/02/13 04:41:15;;;;;;;1.80;1.70;;;;;;;6.48;100.00;102534.94;4964841;28;20190;-70
2023/02/13 04:43:41;;;;;;;1.47;1.37;;;;;;;6.45;100.00;102540.81;4963341;28;20190;-71
2023/02/13 04:46:06;;;;;;;2.03;1.93;;;;;;;6.44;100.00;102531.03;4962931;28;20663;-70
2023/02/13 04:48:31;;;;;;;6.40;2.13;;;;;;;6.42;100.00;102529.59;4966973;28;20252;-71
2023/02/13 04:50:57;;;;;;;1.87;1.47;;;;;;;6.42;100.00;102535.03;4966758;28;20781;-71
2023/02/13 04:53:22;;;;;;;7.07;2.73;;;;;;;6.38;100.00;102531.16;4963421;28;20197;-70
2023/02/13 04:55:47;;;;;;;3.07;1.70;;;;;;;6.37;100.00;102533.03;4963373;28;20572;-70
2023/02/13 04:58:12;;;;;;;2.57;2.37;;;;;;;6.35;100.00;102526.97;4964818;28;20201;-70
2023/02/13 05:00:38;;;;;;;2.73;2.53;;;;;;;6.35;100.00;102529.69;4966553;28;20189;-70
2023/02/13 05:03:05;;;;;;;0.63;0.50;;;;;;;6.33;100.00;102523.66;4964719;28;20653;-71
2023/02/13 05:05:31;;;;;;;1.33;0.93;;;;;;;6.33;100.00;102522.84;4962975;28;20683;-70
2023/02/13 05:07:56;;;;;;;3.03;1.30;;;;;;;6.31;100.00;102524.97;4963442;28;20277;-70
2023/02/13 05:10:21;;;;;;;2.30;1.77;;;;;;;6.30;100.00;102524.13;4965864;28;20186;-74
2023/02/13 05:12:47;;;;;;;1.20;1.10;;;;;;;6.30;100.00;102524.13;4966455;28;20308;-70
2023/02/13 05:15:12;;;;;;;1.00;0.83;;;;;;;6.31;100.00;102530.41;4965983;28;20186;-69
2023/02/13 05:17:37;;;;;;;1.30;1.20;;;;;;;6.30;100.00;102524.13;4966339;28;20274;-70
2023/02/13 05:20:03;;;;;;;1.80;1.70;;;;;;;6.32;100.00;102540.19;4965847;28;20530;-70
2023/02/13 05:25:12;;;;;;;1.40;1.30;;;;;;;6.31;100.00;102536.66;4964266;28;20636;-70
2023/02/13 05:27:37;;;;;;;1.47;1.37;;;;;;;6.31;100.00;102538.53;4966018;28;20269;-70
2023/02/13 05:30:03;;;;;;;0.57;0.50;;;;;;;6.32;100.00;102542.91;4964996;28;20197;-70
2023/02/13 05:32:28;;;;;;;3.87;1.97;;;;;;;6.30;100.00;102542.31;4961305;28;20206;-70
2023/02/13 05:34:53;;;;;;;1.27;1.17;;;;;;;6.26;100.00;102545.50;4962330;28;20409;-71
2023/02/13 05:37:18;;;;;;;1.63;1.53;;;;;;;6.25;100.00;102541.13;4965304;28;20703;-70
2023/02/13 05:39:44;;;;;;;0.67;0.67;;;;;;;6.24;100.00;102544.06;4960278;28;20182;-69
2023/02/13 05:42:09;;;;;;;4.30;1.90;;;;;;;6.22;100.00;102541.59;4963636;28;20697;-73
2023/02/13 05:44:34;;;;;;;0.47;0.33;;;;;;;6.23;100.00;102537.81;4965519;28;20558;-70
2023/02/13 05:47:00;;;;;;;5.03;0.90;;;;;;;6.23;100.00;102545.97;4965726;28;20190;-70
2023/02/13 05:49:25;;;;;;;1.17;1.07;;;;;;;6.24;100.00;102544.91;4962700;28;20190;-72
2023/02/13 05:51:51;;;;;;;7.97;1.20;;;;;;;6.23;100.00;102545.97;4962441;28;20206;-71
2023/02/13 05:54:16;;;;;;;0.10;0.10;;;;;;;6.26;100.00;102545.50;4962052;28;20232;-71
2023/02/13 05:56:42;;;;;;;1.60;0.73;;;;;;;6.25;100.00;102556.59;4962241;28;20196;-70
2023/02/13 05:59:07;;;;;;;0.60;0.53;;;;;;;6.23;100.00;102556.81;4962967;28;20186;-71
2023/02/13 06:01:33;;;;;;;0.30;0.30;;;;;;;6.23;100.00;102558.72;4965691;28;20708;-71
2023/02/13 06:03:58;;;;;;;0.73;0.73;;;;;;;6.23;100.00;102556.81;4965234;28;20268;-71
2023/02/13 06:06:24;;;;;;;0.63;0.63;;;;;;;6.22;100.00;102554.31;4962262;28;20385;-72
2023/02/13 06:08:50;;;;;;;0.07;0.07;;;;;;;6.23;100.00;102564.13;4962046;28;20178;-70
2023/02/13 06:11:15;;;;;;;0.47;0.40;;;;;;;6.21;100.00;102558.91;4963809;28;20237;-71
2023/02/13 06:13:40;;;;;;;0.40;0.30;;;;;;;6.22;100.00;102567.88;4964938;28;20209;-71
2023/02/13 06:16:10;;;;;;;0.43;0.43;;;;;;;6.22;100.00;102565.16;4964575;28;20216;-70
2023/02/13 06:18:36;;;;;;;0.40;0.40;;;;;;;6.22;100.00;102566.03;4962029;28;20195;-70
2023/02/13 06:21:01;;;;;;;0.00;0.00;;;;;;;6.24;100.00;102571.22;4961895;28;20261;-70
2023/02/13 06:23:27;;;;;;;0.57;0.57;;;;;;;6.23;100.00;102564.13;4964847;28;20269;-71
2023/02/13 06:25:52;;;;;;;0.10;0.10;;;;;;;6.21;100.00;102563.50;4965096;28;20196;-71
2023/02/13 06:28:18;;;;;;;0.10;0.10;;;;;;;6.21;100.00;102560.81;4962540;28;20661;-71
2023/02/13 06:30:43;;;;;;;0.33;0.33;;;;;;;6.21;100.00;102566.22;4961688;28;20213;-71
2023/02/13 06:33:08;;;;;;;0.10;0.10;;;;;;;6.19;100.00;102560.22;4962410;28;20210;-73
2023/02/13 06:35:34;;;;;;;0.73;0.40;;;;;;;6.20;100.00;102572.72;4964866;28;20189;-70
2023/02/13 06:37:59;;;;;;;0.17;0.17;;;;;;;6.20;100.00;102575.44;4963605;28;20277;-71
2023/02/13 06:40:24;;;;;;;0.50;0.50;;;;;;;6.17;100.00;102576.72;4961505;28;20225;-70
2023/02/13 06:42:50;;;;;;;0.90;0.80;;;;;;;6.18;100.00;102583.81;4960524;28;20194;-71
2023/02/13 06:45:15;;;;;;;0.77;0.17;;;;;;;6.17;100.00;102571.28;4963150;28;20664;-71
2023/02/13 06:47:42;;;;;;;1.10;1.00;;;;;;;6.16;100.00;102571.53;4964690;28;20185;-71
2023/02/13 06:50:09;;;;;;;0.43;0.37;;;;;;;6.15;100.00;102578.84;4963510;28;20277;-70
2023/02/13 06:52:35;;;;;;;0.60;0.60;;;;;;;6.14;100.00;102571.75;4961188;28;20269;-70
2023/02/13 06:55:00;;;;;;;0.37;0.33;;;;;;;6.13;100.00;102572.81;4960980;28;20191;-71
2023/02/13 06:57:26;;;;;;;0.40;0.40;;;;;;;6.14;100.00;102584.50;4961107;28;20198;-71
2023/02/13 06:59:51;;;;;;;1.20;0.57;;;;;;;6.14;100.00;102592.66;4961218;28;20257;-70
2023/02/13 07:02:16;;;;;;;0.77;0.73;;;;;;;6.13;100.00;102596.41;4963142;28;20194;-70
2023/02/13 07:04:42;;;;;;;0.10;0.10;;;;;;;6.14;100.00;102592.66;4964144;28;20185;-73
2023/02/13 07:07:07;;;;;;;0.33;0.33;;;;;;;6.13;100.00;102602.66;4963372;28;20182;-71
2023/02/13 07:09:32;;;;;;;0.63;0.63;;;;;;;6.14;100.00;102596.19;4960969;28;20265;-71
2023/02/13 07:12:01;;;;;;;0.97;0.80;;;;;;;6.15;100.00;102600.56;4960752;28;20237;-70
2023/02/13 07:14:27;;;;;;;0.73;0.33;;;;;;;6.16;100.00;102595.94;4960465;28;20186;-71
2023/02/13 07:16:52;;;;;;;0.40;0.40;;;;;;;6.17;100.00;102589.47;4959860;28;20201;-72
2023/02/13 07:19:17;;;;;;;0.20;0.20;;;;;;;6.18;100.00;102594.66;4962065;28;20197;-71
2023/02/13 07:21:43;;;;;;;4.07;0.57;;;;;;;6.18;100.00;102599.25;4960830;28;20297;-77
2023/02/13 07:24:08;;;;;;;0.00;0.00;;;;;;;6.20;100.00;102592.53;4960503;28;20711;-80
2023/02/13 07:26:33;;;;;;;0.87;0.87;;;;;;;6.20;100.00;102594.44;4960648;28;20202;-78
2023/02/13 07:28:58;;;;;;;1.50;1.43;;;;;;;6.19;100.00;102603.63;4960646;28;20197;-72
2023/02/13 07:31:24;;;;;;;0.93;0.53;;;;;;;6.18;100.00;102604.69;4963577;28;20205;-80
2023/02/13 07:33:49;;;;;;;0.87;0.87;;;;;;;6.19;100.00;102603.63;4963574;28;20193;-76
2023/02/13 07:36:15;;;;;;;0.27;0.27;;;;;;;6.19;100.00;102606.34;4961900;28;20252;-80
2023/02/13 07:38:40;;;;;;;0.43;0.43;;;;;;;6.17;100.00;102605.75;4959102;28;20646;-77
2023/02/13 07:41:06;;;;;;;4.67;0.40;;;;;;;6.16;100.00;102612.25;4960954;28;20190;-80
2023/02/13 07:43:31;;;;;;;2.97;1.10;;;;;;;6.15;100.00;102611.41;4963599;28;20193;-77
2023/02/13 07:45:58;;;;;;;0.23;0.23;;;;;;;6.16;100.00;102613.06;4963715;28;20723;-79
2023/02/13 07:48:26;;;;;;;1.03;0.90;;;;;;;6.15;100.00;102614.13;4960535;28;20186;-77
2023/02/13 07:50:52;;;;;;;3.30;0.80;;;;;;;6.14;100.00;102614.34;4960495;28;20193;-77
2023/02/13 07:53:18;;;;;;;3.10;2.37;;;;;;;6.08;100.00;102626.13;4960530;28;20222;-79
2023/02/13 07:55:43;;;;;;;7.47;1.67;;;;;;;6.00;100.00;102623.72;4963642;28;20696;-77
2023/02/13 07:58:08;;;;;;;1.73;1.63;;;;;;;5.96;100.00;102618.75;4961097;28;20648;-79
2023/02/13 08:00:34;;;;;;;2.67;2.47;;;;;;;5.95;100.00;102622.53;4960294;28;20203;-80
2023/02/13 08:03:00;;;;;;;4.00;3.80;;;;;;;5.93;100.00;102615.63;4958896;28;20186;-78
2023/02/13 08:05:25;;;;;;;2.10;0.70;;;;;;;5.95;100.00;102616.25;4958625;28;20187;-77
2023/02/13 08:07:51;;;;;;;3.30;3.10;;;;;;;5.96;100.00;102617.91;4960130;28;20190;-76
2023/02/13 08:13:01;;;;;;;3.47;3.03;;;;;;;5.96;100.00;102624.19;4963512;28;20219;-77
2023/02/13 08:15:26;;;;;;;0.10;0.10;;;;;;;5.94;100.00;102622.75;4958623;28;20202;-80
2023/02/13 08:17:51;;;;;;;5.00;1.17;;;;;;;6.01;100.00;102622.66;4960150;28;20261;-80
2023/02/13 08:20:17;;;;;;;0.00;0.00;;;;;;;6.04;100.00;102625.72;4960876;28;20606;-79
2023/02/13 08:22:42;;;;;;;0.53;0.53;;;;;;;6.09;100.00;102623.19;4963219;28;20641;-77
2023/02/13 08:25:08;;;;;;;0.20;0.20;;;;;;;6.14;100.00;102627.94;4962230;28;20191;-79
2023/02/13 08:27:33;;;;;;;0.63;0.63;;;;;;;6.14;100.00;102622.50;4958660;28;20189;-80
2023/02/13 08:30:00;;;;;;;0.00;0.00;;;;;;;6.09;100.00;102623.19;4966547;28;20186;-81
2023/02/13 08:32:25;;;;;;;1.27;1.17;;;;;;;6.10;100.00;102619.41;4959834;28;20206;-80
2023/02/13 08:34:51;;;;;;;0.07;0.07;;;;;;;6.11;100.00;102628.38;4959518;28;20198;-82
2023/02/13 08:37:16;;;;;;;0.63;0.63;;;;;;;6.14;100.00;102625.22;4961750;28;20201;-80
2023/02/13 08:39:42;;;;;;;1.93;1.17;;;;;;;6.16;100.00;102623.09;4963271;28;20284;-78
2023/02/13 08:42:07;;;;;;;3.03;1.73;;;;;;;6.13;100.00;102618.94;4960910;28;20197;-81
2023/02/13 08:44:32;;;;;;;1.13;1.03;;;;;;;6.15;100.00;102614.13;4959634;28;20682;-77
2023/02/13 08:47:01;;;;;;;0.67;0.67;;;;;;;6.21;100.00;102620.50;4959870;28;20196;-73
2023/02/13 08:49:26;;;;;;;0.87;0.87;;;;;;;6.23;100.00;102621.97;4959769;28;20237;-76
2023/02/13 08:51:51;;;;;;;1.43;1.33;;;;;;;6.25;100.00;102617.13;4959664;28;20222;-80
2023/02/13 08:54:16;;;;;;;6.37;2.60;;;;;;;6.25;100.00;102614.41;4961770;28;20198;-80
2023/02/13 08:56:42;;;;;;;0.77;0.70;;;;;;;6.24;100.00;102622.78;4961797;28;20182;-79
2023/02/13 08:59:07;;;;;;;0.30;0.30;;;;;;;6.28;100.00;102615.00;4962092;28;20455;-76
2023/02/13 09:01:32;;;;;;;1.93;1.83;;;;;;;6.30;100.00;102621.03;4959978;28;20223;-79
2023/02/13 09:03:58;;;;;;;1.03;1.03;;;;;;;6.30;100.00;102629.19;4959410;28;20197;-81
2023/02/13 09:06:25;;;;;;;2.20;2.03;;;;;;;6.32;100.00;102627.06;4965758;28;20596;-80
2023/02/13 09:08:50;;;;;;;0.90;0.90;;;;;;;6.33;100.00;102620.56;4966533;28;20185;-79
2023/02/13 09:11:16;;;;;;;1.40;1.33;;;;;;;6.34;100.00;102630.38;4964344;28;20197;-78
2023/02/13 09:13:41;;;;;;;2.77;2.53;;;;;;;6.36;100.00;102629.06;4962823;28;20210;-79
2023/02/13 09:16:07;;;;;;;0.67;0.67;;;;;;;6.41;100.00;102625.69;4963763;28;20233;-80
2023/02/13 09:18:33;;;;;;;0.83;0.83;;;;;;;6.43;100.00;102627.13;4966432;28;20186;-78
2023/02/13 09:21:07;;;;;;;0.80;0.80;;;;;;;6.50;100.00;102627.84;4966211;28;20221;-74
2023/02/13 09:23:35;;;;;;;1.97;1.77;;;;;;;6.59;100.00;102632.97;4962723;28;20248;-75
2023/02/13 09:26:02;;;;;;;0.23;0.23;;;;;;;6.57;100.00;102631.31;4962958;28;20193;-77
2023/02/13 09:28:29;;;;;;;1.83;1.73;;;;;;;6.56;100.00;102632.38;4963067;28;20520;-77
2023/02/13 09:30:54;;;;;;;2.20;1.47;;;;;;;6.55;100.00;102625.28;4962823;28;20182;-76
2023/02/13 09:33:20;;;;;;;1.77;1.67;;;;;;;6.52;100.00;102620.31;4964906;28;20230;-77
2023/02/13 09:35:45;;;;;;;3.00;1.63;;;;;;;6.47;100.00;102625.59;4965848;28;20248;-77
2023/02/13 09:38:11;;;;;;;3.13;2.07;;;;;;;6.45;100.00;102630.44;4964772;28;20186;-75
2023/02/13 09:40:48;;;;;;;0.70;0.70;;;;;;;6.46;100.00;102628.53;4962638;28;20186;-77
2023/02/13 09:43:27;;;;;;;2.10;2.00;;;;;;;6.51;100.00;102628.69;4963912;28;20214;-75
2023/02/13 09:45:54;;;;;;;2.33;2.13;;;;;;;6.50;100.00;102624.28;4965928;28;20213;-77
2023/02/13 09:48:32;;;;;;;1.80;1.70;;;;;;;6.52;100.00;102630.34;4963062;28;20193;-78
2023/02/13 09:50:58;;;;;;;1.13;1.13;;;;;;;6.54;100.00;102633.66;4962329;28;20186;-76
2023/02/13 09:53:27;;;;;;;1.93;1.83;;;;;;;6.52;100.00;102633.91;4964896;28;20226;-77
2023/02/13 09:56:02;;;;;;;0.40;0.37;;;;;;;6.60;100.00;102629.19;4965823;28;20185;-78
2023/02/13 09:59:02;;;;;;;0.43;0.43;;;;;;;6.64;100.00;102636.63;4962366;28;20182;-80
2023/02/13 10:01:40;;;;;;;0.73;0.63;;;;;;;6.62;100.00;102632.50;4935694;28;20269;-78
2023/02/13 10:04:30;;;;;;;0.40;0.40;;;;;;;6.71;100.00;102639.28;4964611;28;20241;-76
2023/02/13 10:07:25;;;;;;;1.13;1.00;;;;;;;6.70;100.00;102640.31;4962141;28;20217;-80
2023/02/13 10:10:00;;;;;;;0.40;0.33;;;;;;;6.78;100.00;102627.22;4961282;28;20598;-79
2023/02/13 10:12:47;;;;;;;2.33;1.63;;;;;;;6.81;100.00;102636.81;4957415;28;20256;-80
2023/02/13 10:15:28;;;;;;;5.87;2.43;;;;;;;6.74;100.00;102645.06;4963217;28;20186;-79
2023/02/13 10:18:01;;;;;;;0.50;0.50;;;;;;;6.79;100.00;102634.31;4962231;28;20560;-76
2023/02/13 10:20:40;;;;;;;1.83;1.53;;;;;;;6.83;100.00;102642.84;4961911;28;20197;-78
2023/02/13 10:23:36;;;;;;;2.20;0.37;;;;;;;6.90;100.00;102640.84;4962328;28;20241;-70
2023/02/13 10:26:13;;;;;;;0.83;0.83;;;;;;;6.91;100.00;102642.50;4960602;28;20193;-70
2023/02/13 10:31:47;;;;;;;0.63;0.63;;;;;;;6.91;100.00;102647.94;4962190;28;20205;-70
2023/02/13 10:34:16;;;;;;;0.00;0.00;;;;;;;6.96;100.00;102644.53;4962821;28;20546;-71
2023/02/13 10:36:46;;;;;;;1.77;1.07;;;;;;;7.08;100.00;102651.63;4965230;28;20418;-71
2023/02/13 10:39:20;;;;;;;1.40;0.77;;;;;;;7.14;100.00;102650.72;4963545;28;20201;-74
2023/02/13 10:41:53;;;;;;;0.27;0.27;;;;;;;7.13;100.00;102650.94;4967853;28;20215;-71
2023/02/13 10:44:56;;;;;;;0.97;0.87;;;;;;;6.98;100.00;102653.28;4962053;28;20547;-71
2023/02/13 10:47:33;;;;;;;0.63;0.63;;;;;;;6.91;100.00;102650.66;4964143;28;20193;-71
2023/02/13 10:50:20;;;;;;;0.70;0.67;;;;;;;6.94;100.00;102647.47;4963432;28;20392;-73
2023/02/13 10:53:01;;;;;;;1.37;0.87;;;;;;;6.85;100.00;102648.88;4961090;28;20210;-71
2023/02/13 10:55:49;;;;;;;1.03;1.03;;;;;;;6.92;100.00;102644.16;4961146;28;20182;-70
2023/02/13 10:58:42;;;;;;;0.93;0.90;;;;;;;6.96;100.00;102645.38;4963021;28;20189;-71
2023/02/13 11:01:21;;;;;;;1.20;0.87;;;;;;;6.99;100.00;102639.47;4962330;28;20590;-70
2023/02/13 11:04:08;;;;;;;1.47;1.37;;;;;;;7.04;100.00;102641.47;4963882;28;20557;-70
2023/02/13 11:06:36;;;;;;;2.20;2.00;;;;;;;7.15;100.00;102644.22;4961192;28;20214;-71
2023/02/13 11:09:06;;;;;;;1.93;0.93;;;;;;;7.21;100.00;102634.28;4961101;28;20651;-71
2023/02/13 11:11:37;;;;;;;1.37;1.27;;;;;;;7.18;100.00;102644.81;4964147;28;20206;-70
2023/02/13 11:14:21;;;;;;;0.00;0.00;;;;;;;7.18;100.00;102639.38;4963565;28;20926;-70
2023/02/13 11:16:50;;;;;;;0.13;0.13;;;;;;;7.27;100.00;102636.06;4959584;28;20196;-71
2023/02/13 11:19:25;;;;;;;0.50;0.50;;;;;;;7.11;100.00;102634.06;4961438;28;20190;-71
2023/02/13 11:21:58;;;;;;;0.00;0.00;;;;;;;7.12;100.00;102633.81;4964019;28;20219;-70
2023/02/13 11:24:25;;;;;;;0.87;0.87;;;;;;;7.21;100.00;102630.72;4960681;28;20658;-71
2023/02/13 11:26:57;;;;;;;1.30;0.80;;;;;;;7.14;100.00;102628.97;4960681;28;20190;-70
2023/02/13 11:29:30;;;;;;;0.47;0.47;;;;;;;7.29;100.00;102633.13;4963276;28;20192;-72
2023/02/13 11:32:14;;;;;;;0.70;0.70;;;;;;;7.38;100.00;102637.16;4963827;28;20202;-69
2023/02/13 11:34:40;;;;;;;0.00;0.00;;;;;;;7.47;100.00;102630.28;4960230;28;20685;-74
2023/02/13 11:37:11;;;;;;;0.50;0.50;;;;;;;7.44;100.00;102628.88;4959577;28;20186;-71
2023/02/13 11:39:37;;;;;;;0.23;0.23;;;;;;;7.34;99.12;102639.50;4963846;28;20699;-73
2023/02/13 11:42:02;;;;;;;0.70;0.70;;;;;;;7.26;98.93;102634.41;4963448;28;20276;-70
2023/02/13 11:44:31;;;;;;;2.73;0.17;;;;;;;7.22;99.16;102626.94;4960290;28;20310;-70
2023/02/13 11:47:00;;;;;;;0.20;0.20;;;;;;;7.33;99.73;102632.41;4960445;28;20186;-70
2023/02/13 11:49:29;;;;;;;0.80;0.77;;;;;;;7.14;99.39;102626.25;4962261;28;20273;-70
2023/02/13 11:52:00;;;;;;;0.97;0.97;;;;;;;7.09;99.66;102623.41;4963751;28;20674;-71
2023/02/13 11:54:33;;;;;;;1.37;1.23;;;;;;;7.05;100.00;102621.38;4958699;28;20533;-71
2023/02/13 11:57:02;;;;;;;4.90;1.70;;;;;;;7.00;100.00;102618.53;4960277;28;20314;-70
2023/02/13 11:59:32;;;;;;;1.60;1.50;;;;;;;6.99;100.00;102617.72;4960152;28;20186;-70
2023/02/13 12:02:20;;;;;;;1.07;1.07;;;;;;;6.95;100.00;102613.00;4960225;28;20213;-71
2023/02/13 12:04:49;;;;;;;0.70;0.70;;;;;;;7.03;100.00;102601.75;4958654;28;20553;-69
2023/02/13 12:07:22;;;;;;;1.40;1.30;;;;;;;7.08;100.00;102610.03;4961899;28;20197;-70
2023/02/13 12:09:54;;;;;;;2.57;1.13;;;;;;;7.13;100.00;102608.28;4962077;28;20288;-72
2023/02/13 12:12:29;;;;;;;0.00;0.00;;;;;;;7.13;100.00;102605.56;4959727;28;20311;-70
2023/02/13 12:14:55;;;;;;;1.30;1.20;;;;;;;7.05;100.00;102611.34;4960029;28;20571;-73
2023/02/13 12:17:27;;;;;;;0.33;0.33;;;;;;;7.02;100.00;102598.22;4962527;28;20189;-71
2023/02/13 12:19:54;;;;;;;0.83;0.47;;;;;;;7.08;100.00;102602.72;4963380;28;20181;-70
2023/02/13 12:22:47;;;;;;;0.33;0.30;;;;;;;7.17;100.00;102603.19;4959422;28;20513;-70
2023/02/13 12:25:36;;;;;;;0.87;0.30;;;;;;;7.17;99.63;102597.75;4960425;28;20659;-71
2023/02/13 12:28:16;;;;;;;0.07;0.07;;;;;;;7.20;98.92;102585.59;4961936;28;20178;-72